Time;durP1;ratioP1;P1;durP2;ratioP2;P2;SDS_P1;SDS_P2;PMS_P1;PMS_P2;Temp;Humidity;BMP_temperature;BMP_pressure;BME280_temperature;BME280_humidity;BME280_pressure;Samples;Min_cycle;Max_cycle;Signal;HPM_P1;HPM_P2
2023/05/03 00:00:25;;;;;;;0.43;0.43;;;12.90;65.40;;;;;;6004278;23;20164;-70
2023/05/03 00:02:52;;;;;;;0.75;0.60;;;13.00;65.90;;;;;;6003754;23;20239;-70
2023/05/03 00:05:18;;;;;;;0.50;0.50;;;13.00;65.70;;;;;;6006132;23;20153;-71
2023/05/03 00:07:45;;;;;;;0.50;0.50;;;13.00;65.60;;;;;;6005662;23;20149;-70
2023/05/03 00:10:12;;;;;;;0.52;0.52;;;13.00;65.20;;;;;;6006035;23;20676;-70
2023/05/03 00:12:42;;;;;;;0.50;0.50;;;13.00;65.00;;;;;;6005683;23;20174;-70
2023/05/03 00:15:09;;;;;;;0.45;0.40;;;12.90;64.80;;;;;;6005786;23;20661;-69
2023/05/03 00:17:37;;;;;;;0.52;0.52;;;12.80;64.40;;;;;;6005933;23;20175;-71
2023/05/03 00:20:04;;;;;;;1.13;0.60;;;12.70;64.60;;;;;;6005625;23;20156;-71
2023/05/03 00:22:31;;;;;;;4.47;0.80;;;12.70;64.60;;;;;;6005381;23;20820;-70
2023/05/03 00:24:57;;;;;;;0.75;0.60;;;12.70;64.70;;;;;;6003942;23;20623;-71
2023/05/03 00:27:23;;;;;;;0.50;0.50;;;12.60;64.70;;;;;;6005945;23;20157;-72
2023/05/03 00:29:52;;;;;;;0.50;0.50;;;12.50;64.70;;;;;;6005707;23;20177;-71
2023/05/03 00:32:23;;;;;;;1.10;0.80;;;12.50;64.50;;;;;;6005998;23;20244;-71
2023/05/03 00:34:56;;;;;;;1.27;0.70;;;12.50;65.00;;;;;;6005811;23;20165;-71
2023/05/03 00:37:23;;;;;;;0.57;0.57;;;12.50;65.20;;;;;;6006391;23;20156;-71
2023/05/03 00:39:49;;;;;;;0.55;0.55;;;12.50;65.20;;;;;;6007172;23;20159;-71
2023/05/03 00:42:15;;;;;;;0.47;0.47;;;12.50;65.50;;;;;;6003841;23;20156;-70
2023/05/03 00:44:40;;;;;;;0.57;0.57;;;12.50;65.30;;;;;;6005836;23;20160;-71
2023/05/03 00:47:07;;;;;;;1.40;0.68;;;12.50;65.20;;;;;;6005587;23;20163;-71
2023/05/03 00:49:33;;;;;;;0.50;0.50;;;12.50;65.50;;;;;;6005489;23;20172;-71
2023/05/03 00:51:58;;;;;;;0.70;0.70;;;12.40;64.80;;;;;;6006261;23;20247;-71
2023/05/03 00:54:28;;;;;;;2.47;0.60;;;12.30;65.10;;;;;;6005801;23;20223;-71
2023/05/03 00:56:57;;;;;;;0.45;0.40;;;12.30;65.00;;;;;;6005946;23;20159;-70
2023/05/03 00:59:23;;;;;;;0.75;0.43;;;12.30;65.00;;;;;;6005369;23;20641;-70
2023/05/03 01:01:50;;;;;;;0.52;0.52;;;12.20;65.00;;;;;;6008381;23;20148;-71
2023/05/03 01:04:17;;;;;;;0.57;0.57;;;12.10;65.00;;;;;;6007833;23;20164;-70
2023/05/03 01:06:55;;;;;;;0.43;0.43;;;12.10;65.40;;;;;;6006071;23;20156;-71
2023/05/03 01:09:32;;;;;;;0.70;0.70;;;12.10;65.10;;;;;;6005119;23;20188;-71
2023/05/03 01:12:13;;;;;;;0.30;0.30;;;12.00;65.20;;;;;;6005504;23;20650;-70
2023/05/03 01:14:45;;;;;;;0.52;0.52;;;12.00;65.40;;;;;;6007355;23;20163;-71
2023/05/03 01:17:12;;;;;;;2.05;0.70;;;12.10;65.40;;;;;;6007445;23;20179;-71
2023/05/03 01:19:46;;;;;;;0.43;0.43;;;12.00;65.60;;;;;;6007284;23;20257;-70
2023/05/03 01:22:45;;;;;;;0.50;0.50;;;12.00;66.00;;;;;;6006771;23;20160;-70
2023/05/03 01:25:13;;;;;;;0.95;0.45;;;12.00;66.00;;;;;;5994206;23;20165;-70
2023/05/03 01:27:40;;;;;;;0.40;0.40;;;12.00;66.10;;;;;;6006895;23;20218;-70
2023/05/03 01:30:08;;;;;;;1.05;0.70;;;11.90;66.00;;;;;;6006934;23;20185;-70
2023/05/03 01:32:37;;;;;;;1.10;0.60;;;11.90;65.90;;;;;;6007137;23;20172;-70
2023/05/03 01:35:19;;;;;;;0.50;0.50;;;11.90;66.00;;;;;;6006859;23;20207;-70
2023/05/03 01:37:48;;;;;;;0.63;0.63;;;11.80;66.00;;;;;;6007386;23;20208;-70
2023/05/03 01:40:18;;;;;;;1.52;0.50;;;11.80;66.10;;;;;;6006807;23;20677;-72
2023/05/03 01:42:44;;;;;;;0.63;0.60;;;11.80;66.00;;;;;;6004350;23;20164;-71
2023/05/03 01:45:11;;;;;;;0.88;0.47;;;11.80;66.30;;;;;;6006944;23;20153;-71
2023/05/03 01:47:37;;;;;;;0.73;0.47;;;11.80;66.60;;;;;;6005381;23;20620;-71
2023/05/03 01:50:03;;;;;;;1.23;0.45;;;11.80;66.40;;;;;;6007503;23;20187;-70
2023/05/03 01:52:29;;;;;;;0.50;0.50;;;11.80;66.30;;;;;;6006530;23;20157;-71
2023/05/03 01:54:55;;;;;;;0.77;0.47;;;11.70;66.30;;;;;;6005160;23;20692;-70
2023/05/03 01:57:21;;;;;;;0.80;0.70;;;11.70;66.70;;;;;;6004881;23;20161;-70
2023/05/03 01:59:47;;;;;;;0.40;0.40;;;11.70;66.60;;;;;;6007228;23;20192;-70
2023/05/03 02:02:13;;;;;;;0.35;0.35;;;11.70;67.00;;;;;;6006898;23;20148;-72
2023/05/03 02:04:38;;;;;;;0.60;0.60;;;11.70;67.00;;;;;;6006779;23;20207;-70
2023/05/03 02:07:04;;;;;;;1.88;0.57;;;11.60;67.20;;;;;;6006707;23;20149;-70
2023/05/03 02:09:30;;;;;;;0.40;0.40;;;11.60;66.80;;;;;;6006442;23;20637;-71
2023/05/03 02:11:55;;;;;;;0.50;0.50;;;11.60;66.90;;;;;;6006726;23;20161;-72
2023/05/03 02:14:21;;;;;;;0.38;0.38;;;11.50;67.20;;;;;;6007043;23;20236;-71
2023/05/03 02:16:47;;;;;;;2.00;0.75;;;11.50;67.20;;;;;;6005454;23;20164;-72
2023/05/03 02:19:13;;;;;;;1.10;0.75;;;11.40;67.80;;;;;;6005094;23;20215;-72
2023/05/03 02:21:38;;;;;;;0.55;0.55;;;11.50;67.50;;;;;;6008081;23;20239;-71
2023/05/03 02:24:04;;;;;;;0.73;0.57;;;11.40;67.60;;;;;;6007142;23;20159;-72
2023/05/03 02:26:30;;;;;;;0.50;0.50;;;11.40;67.50;;;;;;6007108;23;20157;-71
2023/05/03 02:28:56;;;;;;;0.65;0.65;;;11.40;67.80;;;;;;6006301;23;20835;-70
2023/05/03 02:31:23;;;;;;;0.50;0.50;;;11.30;67.70;;;;;;6004950;23;20157;-70
2023/05/03 02:33:49;;;;;;;0.40;0.40;;;11.30;67.70;;;;;;6005782;23;20524;-70
2023/05/03 02:36:15;;;;;;;0.80;0.80;;;11.30;67.90;;;;;;6006771;23;20152;-70
2023/05/03 02:38:41;;;;;;;0.70;0.65;;;11.30;68.00;;;;;;6006559;23;20153;-70
2023/05/03 02:41:06;;;;;;;0.50;0.50;;;11.30;67.50;;;;;;6005754;23;20148;-70
2023/05/03 02:43:32;;;;;;;0.73;0.45;;;11.30;68.10;;;;;;6006689;23;20152;-70
2023/05/03 02:45:58;;;;;;;0.52;0.52;;;11.30;67.70;;;;;;6006038;23;20148;-70
2023/05/03 02:48:23;;;;;;;0.65;0.65;;;11.30;68.00;;;;;;6006936;23;20197;-70
2023/05/03 02:50:49;;;;;;;0.50;0.50;;;11.30;68.10;;;;;;6006902;23;20164;-70
2023/05/03 02:53:15;;;;;;;0.43;0.43;;;11.40;68.10;;;;;;6006394;23;20153;-71
2023/05/03 02:55:41;;;;;;;0.60;0.60;;;11.40;68.20;;;;;;6004212;23;20629;-71
2023/05/03 02:58:06;;;;;;;0.45;0.45;;;11.40;68.00;;;;;;6006092;23;20227;-71
2023/05/03 03:00:32;;;;;;;0.50;0.50;;;11.40;67.90;;;;;;6004830;23;20160;-71
2023/05/03 03:02:58;;;;;;;1.65;0.65;;;11.50;67.80;;;;;;6006352;23;20222;-70
2023/05/03 03:05:23;;;;;;;0.55;0.52;;;11.50;68.00;;;;;;6007057;23;20156;-70
2023/05/03 03:07:50;;;;;;;0.55;0.55;;;11.50;68.30;;;;;;6006482;23;20510;-70
2023/05/03 03:10:15;;;;;;;4.95;1.10;;;11.50;68.00;;;;;;6006174;23;20184;-70
2023/05/03 03:12:41;;;;;;;1.00;0.63;;;11.50;68.20;;;;;;6004462;23;20160;-70
2023/05/03 03:15:07;;;;;;;0.55;0.55;;;11.50;67.90;;;;;;6006349;23;20250;-72
2023/05/03 03:17:37;;;;;;;0.40;0.40;;;11.50;68.40;;;;;;6005929;23;20164;-72
2023/05/03 03:20:05;;;;;;;0.47;0.47;;;11.50;68.20;;;;;;6006553;23;20164;-72
2023/05/03 03:22:30;;;;;;;0.40;0.40;;;11.50;67.70;;;;;;6004642;23;20193;-71
2023/05/03 03:24:56;;;;;;;0.50;0.50;;;11.60;67.70;;;;;;6006155;23;20235;-71
2023/05/03 03:27:22;;;;;;;0.50;0.50;;;11.70;67.40;;;;;;6006400;23;20155;-70
2023/05/03 03:29:48;;;;;;;0.52;0.52;;;11.70;67.50;;;;;;6005121;23;20544;-70
2023/05/03 03:32:14;;;;;;;0.70;0.63;;;11.70;67.70;;;;;;6004834;23;20164;-71
2023/05/03 03:34:40;;;;;;;0.60;0.60;;;11.70;68.30;;;;;;6005769;23;20557;-71
2023/05/03 03:37:06;;;;;;;0.52;0.52;;;11.70;67.70;;;;;;6005066;23;20174;-71
2023/05/03 03:39:31;;;;;;;0.60;0.52;;;11.70;67.60;;;;;;6005375;23;20240;-70
2023/05/03 03:41:57;;;;;;;0.50;0.50;;;11.60;68.10;;;;;;6006255;23;20152;-71
2023/05/03 03:44:23;;;;;;;0.60;0.50;;;11.60;67.80;;;;;;6005482;23;20153;-71
2023/05/03 03:46:48;;;;;;;0.82;0.55;;;11.60;68.00;;;;;;6006614;23;20156;-70
2023/05/03 03:49:14;;;;;;;0.60;0.60;;;11.50;68.60;;;;;;6006150;23;20184;-69
2023/05/03 03:51:40;;;;;;;0.68;0.68;;;11.50;68.40;;;;;;6004771;23;20172;-71
2023/05/03 03:54:05;;;;;;;0.70;0.70;;;11.50;68.50;;;;;;6004138;23;20165;-71
2023/05/03 03:56:31;;;;;;;0.75;0.75;;;11.40;68.40;;;;;;6005918;23;20148;-71
2023/05/03 03:58:56;;;;;;;0.77;0.77;;;11.30;67.90;;;;;;6005499;23;20159;-70
2023/05/03 04:01:22;;;;;;;0.60;0.60;;;11.30;68.60;;;;;;6005316;23;20208;-72
2023/05/03 04:03:48;;;;;;;0.50;0.50;;;11.30;68.30;;;;;;6006373;23;20159;-72
2023/05/03 04:06:13;;;;;;;0.75;0.75;;;11.30;68.50;;;;;;6007343;23;20227;-71
2023/05/03 04:08:40;;;;;;;0.80;0.80;;;11.30;68.50;;;;;;6005952;23;20153;-72
2023/05/03 04:11:11;;;;;;;0.65;0.50;;;11.30;68.50;;;;;;6005100;23;20162;-71
2023/05/03 04:13:37;;;;;;;0.55;0.55;;;11.30;68.90;;;;;;6004264;23;20522;-71
2023/05/03 04:16:03;;;;;;;0.50;0.50;;;11.30;68.60;;;;;;6006589;23;20159;-71
2023/05/03 04:18:28;;;;;;;0.75;0.50;;;11.30;68.40;;;;;;6005825;23;20149;-71
2023/05/03 04:20:54;;;;;;;0.70;0.70;;;11.40;68.60;;;;;;6005228;23;20212;-72
2023/05/03 04:23:20;;;;;;;0.60;0.60;;;11.40;68.70;;;;;;6003940;23;20158;-71
2023/05/03 04:25:47;;;;;;;3.80;0.85;;;11.40;68.50;;;;;;6005609;23;20240;-70
2023/05/03 04:28:14;;;;;;;0.60;0.60;;;11.30;68.90;;;;;;6002445;23;20161;-70
2023/05/03 04:30:40;;;;;;;0.65;0.65;;;11.30;68.60;;;;;;6003916;23;20195;-70
2023/05/03 04:33:08;;;;;;;1.27;0.63;;;11.30;68.80;;;;;;6004200;23;20168;-71
2023/05/03 04:35:34;;;;;;;0.63;0.63;;;11.30;68.90;;;;;;6006468;23;20156;-70
2023/05/03 04:38:01;;;;;;;0.70;0.70;;;11.30;68.90;;;;;;6003902;23;20170;-72
2023/05/03 04:40:27;;;;;;;0.70;0.70;;;11.30;69.60;;;;;;6005571;23;20168;-70
2023/05/03 04:42:53;;;;;;;0.70;0.70;;;11.30;69.30;;;;;;6006627;23;20552;-70
2023/05/03 04:45:19;;;;;;;3.50;0.60;;;11.40;69.60;;;;;;6007509;23;20177;-69
2023/05/03 04:47:46;;;;;;;0.60;0.60;;;11.30;69.90;;;;;;6007843;23;20172;-70
2023/05/03 04:50:12;;;;;;;0.60;0.60;;;11.30;69.20;;;;;;6007240;23;20589;-69
2023/05/03 04:52:38;;;;;;;1.98;0.50;;;11.30;69.60;;;;;;6006921;23;20199;-70
2023/05/03 04:55:04;;;;;;;1.02;0.75;;;11.20;69.20;;;;;;6005614;23;20512;-70
2023/05/03 04:57:31;;;;;;;0.70;0.70;;;11.20;69.50;;;;;;6007279;23;20152;-69
2023/05/03 04:59:57;;;;;;;0.55;0.55;;;11.20;69.90;;;;;;6003984;23;20168;-69
2023/05/03 05:02:22;;;;;;;0.68;0.68;;;11.20;69.80;;;;;;6006484;23;20180;-69
2023/05/03 05:04:48;;;;;;;0.60;0.60;;;11.20;70.00;;;;;;6007443;23;20176;-70
2023/05/03 05:07:14;;;;;;;0.68;0.68;;;11.20;70.20;;;;;;6007577;23;20152;-70
2023/05/03 05:09:39;;;;;;;0.60;0.60;;;11.30;70.20;;;;;;6008091;23;20180;-70
2023/05/03 05:12:05;;;;;;;0.63;0.63;;;11.30;70.70;;;;;;6007947;23;20192;-72
2023/05/03 05:14:31;;;;;;;0.60;0.60;;;11.20;70.90;;;;;;6006342;23;20601;-69
2023/05/03 05:16:57;;;;;;;0.80;0.80;;;11.10;72.00;;;;;;6007813;23;20149;-71
2023/05/03 05:19:23;;;;;;;3.72;0.95;;;11.10;72.30;;;;;;6007746;23;20157;-70
2023/05/03 05:21:50;;;;;;;0.80;0.80;;;11.10;73.30;;;;;;6007170;23;20155;-70
2023/05/03 05:24:15;;;;;;;0.60;0.60;;;11.00;73.10;;;;;;6005958;23;20585;-69
2023/05/03 05:26:42;;;;;;;0.98;0.70;;;11.00;73.90;;;;;;6007895;23;20148;-70
2023/05/03 05:29:08;;;;;;;0.88;0.88;;;11.10;74.10;;;;;;6007260;23;20670;-71
2023/05/03 05:31:34;;;;;;;0.60;0.60;;;11.10;73.30;;;;;;6007546;23;20156;-70
2023/05/03 05:33:59;;;;;;;0.63;0.63;;;11.10;72.50;;;;;;6006151;23;20239;-71
2023/05/03 05:36:26;;;;;;;1.38;0.65;;;11.20;73.00;;;;;;6006050;23;20199;-70
2023/05/03 05:38:51;;;;;;;1.05;1.05;;;11.20;73.10;;;;;;6006194;23;20196;-70
2023/05/03 05:41:17;;;;;;;0.80;0.80;;;11.30;73.00;;;;;;6007579;23;20152;-69
2023/05/03 05:43:43;;;;;;;0.90;0.90;;;11.40;72.60;;;;;;6007715;23;20523;-69
2023/05/03 05:46:09;;;;;;;0.60;0.60;;;11.40;72.40;;;;;;6005281;23;20616;-70
2023/05/03 05:48:35;;;;;;;0.55;0.55;;;11.50;72.30;;;;;;6007481;23;20173;-70
2023/05/03 05:51:00;;;;;;;0.88;0.82;;;11.60;71.70;;;;;;6008362;23;20245;-71
2023/05/03 05:53:27;;;;;;;0.80;0.80;;;11.80;72.30;;;;;;6007723;23;20184;-69
2023/05/03 05:55:53;;;;;;;0.52;0.52;;;11.70;71.10;;;;;;6007632;23;20159;-71
2023/05/03 05:58:19;;;;;;;0.57;0.57;;;11.70;71.60;;;;;;6007376;23;20153;-70
2023/05/03 06:00:47;;;;;;;1.00;1.00;;;11.50;70.90;;;;;;6007405;23;20774;-71
2023/05/03 06:03:14;;;;;;;0.90;0.90;;;11.50;72.20;;;;;;6005999;23;20183;-69
2023/05/03 06:05:40;;;;;;;0.55;0.55;;;11.40;72.30;;;;;;6005815;23;20165;-70
2023/05/03 06:08:07;;;;;;;1.65;0.60;;;11.30;72.00;;;;;;6007541;23;20159;-70
2023/05/03 06:10:33;;;;;;;0.70;0.65;;;11.30;72.20;;;;;;6005610;23;20193;-69
2023/05/03 06:12:59;;;;;;;0.60;0.60;;;11.30;72.50;;;;;;6007464;23;20159;-69
2023/05/03 06:15:25;;;;;;;1.83;0.80;;;11.40;72.30;;;;;;6005314;23;20169;-69
2023/05/03 06:17:50;;;;;;;3.40;0.70;;;11.40;73.30;;;;;;6005817;23;20164;-69
2023/05/03 06:20:17;;;;;;;0.70;0.70;;;11.50;73.20;;;;;;6007441;23;20179;-69
2023/05/03 06:22:43;;;;;;;0.52;0.52;;;11.40;73.30;;;;;;6005703;23;20634;-69
2023/05/03 06:25:09;;;;;;;0.77;0.77;;;11.40;72.60;;;;;;6007261;23;20149;-69
2023/05/03 06:27:37;;;;;;;0.63;0.55;;;11.40;72.50;;;;;;6005801;23;20243;-70
2023/05/03 06:30:03;;;;;;;0.63;0.63;;;11.40;73.30;;;;;;6005573;23;20196;-70
2023/05/03 06:32:28;;;;;;;0.50;0.50;;;11.40;73.30;;;;;;6007081;23;20152;-70
2023/05/03 06:34:54;;;;;;;0.93;0.88;;;11.40;74.20;;;;;;6007098;23;20188;-70
2023/05/03 06:37:21;;;;;;;0.75;0.75;;;11.40;73.90;;;;;;6007309;23;20212;-70
2023/05/03 06:39:49;;;;;;;0.60;0.60;;;11.60;73.70;;;;;;6007052;23;20183;-70
2023/05/03 06:42:15;;;;;;;0.70;0.70;;;11.70;73.10;;;;;;6005558;23;20168;-69
2023/05/03 06:44:41;;;;;;;0.93;0.93;;;11.70;73.90;;;;;;6007078;23;20664;-71
2023/05/03 06:47:07;;;;;;;0.73;0.73;;;11.80;73.20;;;;;;6007073;23;20156;-69
2023/05/03 06:49:32;;;;;;;0.63;0.63;;;11.80;73.00;;;;;;6007038;23;20173;-70
2023/05/03 06:51:58;;;;;;;0.70;0.70;;;11.80;73.70;;;;;;6006811;23;20232;-70
2023/05/03 06:54:24;;;;;;;0.50;0.50;;;11.90;73.10;;;;;;6006953;23;20156;-70
2023/05/03 06:56:49;;;;;;;0.95;0.95;;;11.80;72.30;;;;;;6007049;23;20156;-69
2023/05/03 06:59:16;;;;;;;1.02;0.90;;;12.00;73.80;;;;;;6006802;23;20161;-71
2023/05/03 07:01:41;;;;;;;0.70;0.70;;;12.00;73.10;;;;;;6006984;23;20235;-70
2023/05/03 07:04:07;;;;;;;1.25;0.73;;;12.10;73.50;;;;;;6006601;23;20640;-71
2023/05/03 07:06:33;;;;;;;0.60;0.60;;;12.10;71.60;;;;;;6007017;23;20153;-69
2023/05/03 07:08:58;;;;;;;0.60;0.60;;;12.20;72.50;;;;;;6005011;23;20184;-70
2023/05/03 07:11:24;;;;;;;0.73;0.73;;;12.20;71.80;;;;;;6006952;23;20149;-71
2023/05/03 07:13:51;;;;;;;0.82;0.82;;;12.20;71.80;;;;;;6004899;23;20240;-70
2023/05/03 07:16:17;;;;;;;0.65;0.63;;;12.10;72.60;;;;;;6006733;23;20149;-70
2023/05/03 07:18:43;;;;;;;0.65;0.65;;;12.10;72.20;;;;;;6006840;23;20180;-70
2023/05/03 07:21:09;;;;;;;0.75;0.75;;;12.10;72.00;;;;;;6005410;23;20164;-70
2023/05/03 07:23:35;;;;;;;0.70;0.70;;;12.10;72.20;;;;;;6005473;23;20164;-72
2023/05/03 07:26:00;;;;;;;0.65;0.63;;;12.00;73.30;;;;;;6006735;23;20243;-70
2023/05/03 07:28:26;;;;;;;0.70;0.70;;;12.00;72.70;;;;;;6006574;23;20161;-70
2023/05/03 07:30:52;;;;;;;0.60;0.60;;;12.10;73.70;;;;;;6006522;23;20219;-70
2023/05/03 07:33:17;;;;;;;0.60;0.60;;;12.10;72.80;;;;;;6005872;23;20156;-70
2023/05/03 07:35:47;;;;;;;0.80;0.73;;;12.30;73.20;;;;;;6008542;23;20148;-69
2023/05/03 07:38:12;;;;;;;0.77;0.77;;;12.30;72.90;;;;;;6007120;23;20149;-69
2023/05/03 07:40:38;;;;;;;0.50;0.50;;;12.40;72.70;;;;;;6006294;23;20538;-69
2023/05/03 07:43:04;;;;;;;0.63;0.63;;;12.50;72.70;;;;;;6006209;23;20617;-70
2023/05/03 07:45:30;;;;;;;0.85;0.70;;;12.70;73.00;;;;;;6006029;23;20152;-71
2023/05/03 07:47:55;;;;;;;0.82;0.82;;;12.80;72.30;;;;;;6006098;23;20191;-69
2023/05/03 07:50:21;;;;;;;0.75;0.75;;;13.00;72.00;;;;;;6005949;23;20263;-69
2023/05/03 07:52:50;;;;;;;0.77;0.77;;;13.10;71.60;;;;;;6006426;23;20517;-72
2023/05/03 07:55:17;;;;;;;0.95;0.95;;;13.20;71.60;;;;;;6005024;23;20513;-69
2023/05/03 07:57:44;;;;;;;1.10;1.10;;;13.30;70.80;;;;;;6006717;23;20231;-70
2023/05/03 08:00:11;;;;;;;0.90;0.90;;;13.30;71.10;;;;;;6004621;23;20167;-69
2023/05/03 08:02:37;;;;;;;0.90;0.90;;;13.30;70.80;;;;;;6004814;23;20160;-70
2023/05/03 08:05:06;;;;;;;1.75;1.08;;;13.30;71.10;;;;;;6005902;23;20152;-70
2023/05/03 08:07:32;;;;;;;0.75;0.65;;;13.40;71.60;;;;;;6005808;23;20159;-70
2023/05/03 08:09:58;;;;;;;0.90;0.90;;;13.50;71.80;;;;;;6005725;23;20180;-69
2023/05/03 08:12:27;;;;;;;0.98;0.98;;;13.50;71.10;;;;;;6006144;23;20149;-70
2023/05/03 08:14:55;;;;;;;0.75;0.75;;;13.40;71.80;;;;;;6006091;23;20546;-70
2023/05/03 08:17:22;;;;;;;2.28;0.85;;;13.40;71.70;;;;;;6004516;23;20164;-70
2023/05/03 08:19:48;;;;;;;0.70;0.70;;;13.60;71.90;;;;;;6004703;23;20184;-70
2023/05/03 08:22:15;;;;;;;1.00;1.00;;;13.80;71.70;;;;;;6006281;23;20231;-69
2023/05/03 08:24:41;;;;;;;0.80;0.80;;;14.00;71.30;;;;;;6004677;23;20568;-70
2023/05/03 08:27:08;;;;;;;0.95;0.95;;;14.10;71.20;;;;;;6006567;23;20155;-70
2023/05/03 08:29:37;;;;;;;1.55;1.38;;;14.20;71.40;;;;;;6004530;23;20202;-70
2023/05/03 08:32:04;;;;;;;1.42;1.38;;;14.30;70.00;;;;;;6006012;23;20561;-70
2023/05/03 08:34:30;;;;;;;1.80;1.70;;;14.30;69.90;;;;;;6004348;23;20243;-71
2023/05/03 08:36:56;;;;;;;0.80;0.80;;;14.30;70.00;;;;;;6006272;23;20236;-69
2023/05/03 08:39:25;;;;;;;0.82;0.82;;;14.40;70.70;;;;;;6004596;23;20160;-70
2023/05/03 08:41:52;;;;;;;0.98;0.98;;;14.60;70.30;;;;;;6006296;23;20182;-69
2023/05/03 08:44:22;;;;;;;3.40;0.95;;;14.70;70.90;;;;;;6006078;23;20487;-70
2023/05/03 08:46:51;;;;;;;0.90;0.90;;;14.80;70.50;;;;;;6006262;23;20152;-69
2023/05/03 08:49:17;;;;;;;1.63;0.95;;;15.00;70.00;;;;;;6006044;23;20184;-70
2023/05/03 08:51:48;;;;;;;1.05;1.05;;;15.00;69.40;;;;;;6006239;23;20153;-71
2023/05/03 08:54:15;;;;;;;1.48;1.38;;;15.10;70.10;;;;;;6004107;23;20193;-70
2023/05/03 08:56:42;;;;;;;1.40;0.82;;;15.10;69.10;;;;;;6004703;23;20161;-70
2023/05/03 08:59:10;;;;;;;0.93;0.93;;;15.30;69.60;;;;;;6006083;23;20156;-71
2023/05/03 09:01:39;;;;;;;1.23;1.23;;;15.50;69.20;;;;;;6003650;23;20165;-70
2023/05/03 09:04:06;;;;;;;0.90;0.90;;;15.80;68.50;;;;;;6004090;23;20629;-69
2023/05/03 09:06:33;;;;;;;1.10;1.05;;;16.00;68.00;;;;;;6002849;23;20251;-70
2023/05/03 09:09:00;;;;;;;2.35;1.13;;;16.00;67.30;;;;;;6004353;23;20556;-72
2023/05/03 09:11:28;;;;;;;1.15;1.15;;;16.00;67.40;;;;;;6004285;23;20163;-69
2023/05/03 09:14:07;;;;;;;0.88;0.88;;;16.00;67.80;;;;;;6004170;23;20508;-70
2023/05/03 09:16:32;;;;;;;1.10;1.10;;;16.20;68.40;;;;;;6005325;23;20149;-72
2023/05/03 09:19:03;;;;;;;1.05;1.05;;;16.40;67.30;;;;;;6007304;23;20609;-70
2023/05/03 09:21:32;;;;;;;2.25;0.93;;;16.50;67.60;;;;;;6006585;23;20164;-71
2023/05/03 09:24:00;;;;;;;2.75;1.10;;;16.70;66.50;;;;;;6007729;23;20238;-70
2023/05/03 09:26:35;;;;;;;1.15;1.15;;;17.00;67.60;;;;;;6005607;23;20623;-70
2023/05/03 09:29:02;;;;;;;1.00;1.00;;;17.30;65.00;;;;;;6007620;23;20545;-72
2023/05/03 09:31:30;;;;;;;1.33;1.30;;;17.50;65.30;;;;;;6007771;23;20159;-70
2023/05/03 09:33:56;;;;;;;1.33;1.33;;;17.70;65.00;;;;;;6008246;23;20157;-70
2023/05/03 09:36:22;;;;;;;1.10;1.10;;;17.90;65.10;;;;;;6007631;23;20228;-70
2023/05/03 09:38:49;;;;;;;1.20;1.20;;;18.10;64.70;;;;;;6006773;23;20546;-70
2023/05/03 09:41:15;;;;;;;2.78;1.33;;;18.20;64.50;;;;;;6006546;23;20268;-71
2023/05/03 09:43:51;;;;;;;1.13;1.13;;;18.60;64.30;;;;;;6006467;23;20152;-71
2023/05/03 09:46:17;;;;;;;1.50;1.30;;;18.90;63.40;;;;;;6006908;23;20219;-72
2023/05/03 09:48:44;;;;;;;1.52;1.45;;;19.10;63.10;;;;;;6008153;23;20636;-70
2023/05/03 09:51:10;;;;;;;1.30;1.23;;;19.20;62.50;;;;;;6005911;23;20243;-72
2023/05/03 09:53:38;;;;;;;1.23;1.23;;;19.40;62.60;;;;;;6007600;23;20160;-71
2023/05/03 09:56:11;;;;;;;1.00;1.00;;;20.10;62.00;;;;;;6006949;23;20172;-70
2023/05/03 09:58:37;;;;;;;1.33;1.20;;;21.00;60.40;;;;;;6006731;23;20229;-72
2023/05/03 10:01:04;;;;;;;1.52;1.42;;;22.00;58.20;;;;;;6006923;23;20768;-71
2023/05/03 10:03:47;;;;;;;1.00;1.00;;;22.50;56.90;;;;;;6006573;23;20208;-72
2023/05/03 10:06:23;;;;;;;1.00;1.00;;;23.10;57.10;;;;;;6005500;23;20164;-72
2023/05/03 10:09:15;;;;;;;1.23;1.17;;;23.90;54.90;;;;;;6006498;23;20144;-72
2023/05/03 10:11:50;;;;;;;1.13;1.13;;;24.00;54.90;;;;;;6006937;23;20163;-72
2023/05/03 10:14:16;;;;;;;0.98;0.98;;;23.60;55.00;;;;;;6007670;23;20724;-71
2023/05/03 10:16:46;;;;;;;1.27;1.27;;;23.50;55.30;;;;;;6006853;23;20152;-71
2023/05/03 10:19:18;;;;;;;0.93;0.93;;;23.50;55.10;;;;;;6006924;23;20624;-71
2023/05/03 10:22:04;;;;;;;1.35;1.25;;;23.50;55.00;;;;;;6007303;23;20179;-71
2023/05/03 10:24:31;;;;;;;1.05;0.98;;;24.00;55.60;;;;;;6004881;23;20171;-71
2023/05/03 10:26:57;;;;;;;1.30;1.20;;;24.90;53.90;;;;;;6006355;23;20149;-71
2023/05/03 10:29:36;;;;;;;1.10;1.10;;;25.70;52.50;;;;;;6007274;23;20176;-70
2023/05/03 10:32:03;;;;;;;0.93;0.93;;;26.10;51.90;;;;;;6007142;23;20493;-71
2023/05/03 10:34:33;;;;;;;1.00;1.00;;;25.70;51.90;;;;;;6006806;23;20148;-70
2023/05/03 10:37:02;;;;;;;1.13;1.13;;;24.90;52.90;;;;;;6007203;23;20156;-70
2023/05/03 10:39:28;;;;;;;2.17;1.00;;;24.50;53.70;;;;;;6006465;23;20239;-71
2023/05/03 10:42:03;;;;;;;1.30;1.23;;;24.10;54.50;;;;;;6005384;23;20188;-70
2023/05/03 10:44:48;;;;;;;1.05;1.05;;;23.80;55.20;;;;;;6006871;23;20550;-71
2023/05/03 10:47:23;;;;;;;2.58;1.10;;;23.70;55.80;;;;;;6007275;23;20164;-71
2023/05/03 10:50:10;;;;;;;1.55;1.42;;;23.40;55.20;;;;;;6005564;23;20214;-71
2023/05/03 10:52:41;;;;;;;1.50;1.40;;;22.80;57.30;;;;;;6007029;23;20699;-71
2023/05/03 10:55:17;;;;;;;1.08;1.08;;;22.20;58.20;;;;;;6006989;23;20152;-72
2023/05/03 10:57:46;;;;;;;1.08;1.08;;;21.60;58.40;;;;;;6005857;23;20183;-69
2023/05/03 11:00:31;;;;;;;1.75;1.30;;;21.20;59.70;;;;;;6005256;23;20216;-72
2023/05/03 11:03:28;;;;;;;2.10;1.60;;;20.70;61.30;;;;;;6004971;23;20437;-71
2023/05/03 11:05:54;;;;;;;1.42;1.25;;;20.30;61.90;;;;;;6004439;23;20143;-71
2023/05/03 11:08:22;;;;;;;1.25;1.08;;;20.10;62.20;;;;;;6003054;23;20160;-72
2023/05/03 11:10:55;;;;;;;1.10;1.05;;;20.00;62.30;;;;;;6004575;23;20184;-72
2023/05/03 11:13:21;;;;;;;2.85;1.00;;;19.90;62.50;;;;;;6004901;23;20216;-70
2023/05/03 11:15:47;;;;;;;1.75;1.08;;;19.90;62.40;;;;;;6004545;23;20183;-71
2023/05/03 11:18:13;;;;;;;1.13;1.10;;;20.00;62.90;;;;;;6005786;23;20551;-71
2023/05/03 11:20:39;;;;;;;1.20;1.20;;;20.00;62.30;;;;;;6006180;23;20217;-73
2023/05/03 11:23:06;;;;;;;0.93;0.93;;;20.00;62.20;;;;;;6005048;23;20184;-72
2023/05/03 11:25:32;;;;;;;1.20;1.10;;;19.70;61.40;;;;;;6006154;23;20156;-71
2023/05/03 11:28:03;;;;;;;1.20;1.20;;;19.60;62.10;;;;;;6005176;23;20160;-71
2023/05/03 11:30:31;;;;;;;2.03;1.25;;;19.60;62.90;;;;;;6006642;23;20209;-72
2023/05/03 11:32:58;;;;;;;1.23;1.23;;;19.60;62.40;;;;;;6006342;23;20167;-73
2023/05/03 11:35:25;;;;;;;1.33;1.20;;;19.50;63.30;;;;;;6006379;23;20157;-71
2023/05/03 11:37:52;;;;;;;1.48;1.30;;;19.50;63.80;;;;;;6004852;23;20160;-71
2023/05/03 11:40:18;;;;;;;1.48;1.38;;;19.60;63.90;;;;;;6006129;23;20156;-72
2023/05/03 11:43:00;;;;;;;1.00;1.00;;;19.70;64.30;;;;;;6005316;23;20621;-71
2023/05/03 11:45:31;;;;;;;1.30;0.88;;;19.60;63.50;;;;;;6004630;23;20243;-71
2023/05/03 11:47:58;;;;;;;1.80;0.80;;;19.80;63.70;;;;;;6005151;23;20196;-70
2023/05/03 11:50:50;;;;;;;2.85;0.80;;;20.70;62.80;;;;;;6004326;23;20216;-71
2023/05/03 11:53:17;;;;;;;4.00;0.93;;;21.80;60.30;;;;;;6000438;23;20203;-71
2023/05/03 11:55:46;;;;;;;1.27;1.17;;;22.30;59.80;;;;;;6005609;23;20187;-72
2023/05/03 11:58:30;;;;;;;1.02;1.02;;;22.50;59.20;;;;;;6004664;23;20160;-72
2023/05/03 12:00:56;;;;;;;1.42;1.38;;;22.60;59.10;;;;;;6004784;23;20517;-71
2023/05/03 12:03:24;;;;;;;1.05;1.05;;;22.80;59.00;;;;;;6004004;23;20153;-72
2023/05/03 12:05:54;;;;;;;2.25;1.15;;;22.80;58.30;;;;;;6003559;23;20688;-71
2023/05/03 12:08:20;;;;;;;0.85;0.85;;;22.70;59.10;;;;;;6005159;23;20235;-72
2023/05/03 12:10:47;;;;;;;1.23;1.00;;;23.00;58.80;;;;;;6004374;23;20216;-72
2023/05/03 12:13:13;;;;;;;2.88;1.30;;;23.50;57.80;;;;;;6004811;23;20231;-71
2023/05/03 12:15:39;;;;;;;1.60;0.90;;;23.50;58.10;;;;;;6003372;23;20196;-72
2023/05/03 12:18:11;;;;;;;1.20;1.20;;;23.10;57.90;;;;;;6003027;23;20188;-72
2023/05/03 12:20:38;;;;;;;1.52;1.42;;;22.70;58.50;;;;;;6003743;23;20145;-71
2023/05/03 12:23:06;;;;;;;1.20;1.20;;;22.50;59.00;;;;;;6003639;23;20654;-71
2023/05/03 12:25:33;;;;;;;1.40;1.30;;;22.30;59.00;;;;;;6002994;23;20155;-71
2023/05/03 12:28:04;;;;;;;1.10;1.00;;;21.70;59.90;;;;;;6003079;23;20176;-73
2023/05/03 12:30:30;;;;;;;1.42;1.33;;;21.00;60.90;;;;;;6003632;23;20172;-72
2023/05/03 12:32:56;;;;;;;1.10;1.10;;;20.40;62.60;;;;;;6003812;23;20613;-71
2023/05/03 12:35:22;;;;;;;2.15;1.42;;;20.00;63.40;;;;;;6005822;23;20257;-70
2023/05/03 12:37:49;;;;;;;1.48;1.38;;;19.30;64.20;;;;;;6004798;23;20161;-71
2023/05/03 12:40:16;;;;;;;1.00;1.00;;;18.80;65.60;;;;;;6006064;23;20951;-70
2023/05/03 12:42:43;;;;;;;1.25;1.25;;;18.60;66.10;;;;;;6004023;23;20228;-72
2023/05/03 12:45:10;;;;;;;1.65;1.20;;;18.30;66.50;;;;;;6004373;23;20149;-71
2023/05/03 12:47:36;;;;;;;1.30;1.23;;;18.10;67.10;;;;;;6006475;23;20183;-71
2023/05/03 12:50:02;;;;;;;1.20;1.20;;;17.90;67.90;;;;;;6006313;23;20259;-72